createdAt,value
2023-03-26T00:01:26.629Z,78.45
2023-03-26T00:04:38.662Z,78.39
2023-03-26T00:07:52.016Z,78.31
2023-03-26T00:11:03.978Z,77.80
2023-03-26T00:14:17.860Z,78.77
2023-03-26T00:17:30.670Z,78.71
2023-03-26T00:20:43.093Z,79.09
2023-03-26T00:23:55.438Z,79.03
2023-03-26T00:27:09.252Z,79.65
2023-03-26T00:30:22.735Z,79.84
2023-03-26T00:33:38.273Z,80.35
2023-03-26T00:36:53.270Z,81.46
2023-03-26T00:40:08.138Z,81.13
2023-03-26T00:43:23.004Z,80.59
2023-03-26T00:46:37.520Z,80.80
2023-03-26T00:49:51.068Z,81.87
2023-03-26T00:53:03.486Z,81.52
2023-03-26T00:56:17.455Z,82.24
2023-03-26T00:59:30.603Z,83.03
2023-03-26T01:02:43.852Z,82.93
2023-03-26T01:06:02.425Z,82.72
2023-03-26T01:09:21.710Z,82.22
2023-03-26T01:12:37.192Z,82.26
2023-03-26T01:15:53.581Z,82.16
2023-03-26T01:19:08.826Z,81.38
2023-03-26T01:22:26.508Z,81.95
2023-03-26T01:25:43.319Z,81.65
2023-03-26T01:28:58.854Z,81.61
2023-03-26T01:32:21.608Z,81.26
2023-03-26T01:35:44.811Z,81.06
2023-03-26T01:39:03.712Z,80.47
2023-03-26T01:42:19.782Z,81.78
2023-03-26T01:45:36.813Z,81.63
2023-03-26T01:48:51.702Z,86.34
2023-03-26T01:52:04.866Z,90.09
2023-03-26T01:55:18.365Z,93.72
2023-03-26T01:58:39.288Z,94.19
2023-03-26T02:01:57.567Z,94.92
2023-03-26T02:05:16.358Z,95.76
2023-03-26T02:08:35.844Z,97.14
2023-03-26T02:11:50.185Z,97.79
2023-03-26T02:15:05.162Z,98.54
2023-03-26T02:18:17.384Z,99.22
2023-03-26T02:21:34.361Z,99.50
2023-03-26T02:24:47.118Z,99.60
2023-03-26T02:28:00.465Z,99.88
2023-03-26T02:31:14.040Z,99.78
2023-03-26T02:34:26.422Z,99.49
2023-03-26T02:37:39.725Z,100.00
2023-03-26T02:40:56.876Z,100.00
2023-03-26T02:44:11.919Z,100.00
2023-03-26T02:47:43.716Z,100.00
2023-03-26T02:51:04.184Z,100.00
2023-03-26T02:54:20.665Z,100.00
2023-03-26T02:57:33.237Z,98.89
2023-03-26T03:00:59.687Z,98.89
2023-03-26T03:04:18.182Z,98.38
2023-03-26T03:07:31.127Z,99.20
2023-03-26T03:10:45.096Z,98.80
2023-03-26T03:14:02.192Z,98.50
2023-03-26T03:17:15.774Z,97.64
2023-03-26T03:20:30.091Z,96.99
2023-03-26T03:23:42.750Z,96.73
2023-03-26T03:26:58.303Z,96.91
2023-03-26T03:30:22.305Z,95.31
2023-03-26T03:33:43.388Z,94.75
2023-03-26T03:36:56.038Z,94.11
2023-03-26T03:40:16.377Z,94.61
2023-03-26T03:43:29.278Z,93.98
2023-03-26T03:46:44.682Z,93.52
2023-03-26T03:49:57.113Z,92.97
2023-03-26T03:53:09.949Z,92.25
2023-03-26T03:56:24.467Z,91.86
2023-03-26T03:59:47.919Z,90.47
2023-03-26T04:02:59.694Z,90.01
2023-03-26T04:06:16.797Z,89.23
2023-03-26T04:09:29.581Z,88.91
2023-03-26T04:12:43.534Z,88.77
2023-03-26T04:15:57.890Z,89.89
2023-03-26T04:19:10.839Z,91.02
2023-03-26T04:22:23.869Z,90.72
2023-03-26T04:25:39.764Z,91.05
2023-03-26T04:28:59.967Z,90.95
2023-03-26T04:32:18.869Z,91.68
2023-03-26T04:35:33.601Z,91.34
2023-03-26T04:38:52.337Z,91.09
2023-03-26T04:42:06.392Z,91.23
2023-03-26T04:45:23.909Z,90.49
2023-03-26T04:48:38.925Z,90.04
2023-03-26T04:51:53.828Z,90.37
2023-03-26T04:55:25.829Z,89.48
2023-03-26T04:58:40.099Z,88.95
2023-03-26T05:01:53.119Z,88.44
2023-03-26T05:05:07.186Z,88.54
2023-03-26T05:08:19.974Z,89.69
2023-03-26T05:11:33.216Z,89.62
2023-03-26T05:14:46.037Z,90.44
2023-03-26T05:18:00.093Z,89.75
2023-03-26T05:21:17.535Z,90.54
2023-03-26T05:24:30.232Z,90.36
2023-03-26T05:27:43.056Z,89.99
2023-03-26T05:30:55.926Z,91.11
2023-03-26T05:34:09.626Z,89.94
2023-03-26T05:37:23.894Z,91.10
2023-03-26T05:40:38.150Z,90.75
2023-03-26T05:43:52.162Z,90.59
2023-03-26T05:47:06.343Z,90.66
2023-03-26T05:50:19.990Z,90.14
2023-03-26T05:53:33.954Z,89.18
2023-03-26T05:57:01.860Z,89.43
2023-03-26T06:00:34.091Z,88.09
2023-03-26T06:03:48.181Z,87.09
2023-03-26T06:07:02.491Z,86.03
2023-03-26T06:10:18.558Z,84.70
2023-03-26T06:13:31.807Z,85.34
2023-03-26T06:16:44.770Z,84.28
2023-03-26T06:19:59.125Z,85.01
2023-03-26T06:23:13.247Z,84.67
2023-03-26T06:26:33.859Z,84.30
2023-03-26T06:29:48.395Z,83.81
2023-03-26T06:33:19.380Z,84.44
2023-03-26T06:36:33.569Z,83.90
2023-03-26T06:39:46.289Z,83.72
2023-03-26T06:43:08.549Z,83.20
2023-03-26T06:46:36.571Z,81.59
2023-03-26T06:50:03.345Z,80.52
2023-03-26T06:53:26.655Z,81.43
2023-03-26T06:56:41.356Z,81.06
2023-03-26T07:00:05.888Z,79.21
2023-03-26T07:03:33.211Z,77.68
2023-03-26T07:07:00.313Z,77.93
2023-03-26T07:10:32.213Z,77.60
2023-03-26T07:13:49.541Z,78.40
2023-03-26T07:17:20.495Z,77.57
2023-03-26T07:20:42.658Z,75.98
2023-03-26T07:23:57.808Z,76.46
2023-03-26T07:27:49.012Z,77.14
2023-03-26T07:31:15.200Z,76.14
2023-03-26T07:34:56.789Z,76.17
2023-03-26T07:38:43.768Z,74.33
2023-03-26T07:42:23.621Z,68.05
2023-03-26T07:45:50.884Z,65.96
2023-03-26T07:49:18.251Z,63.62
2023-03-26T07:52:34.560Z,62.04
2023-03-26T07:56:02.060Z,59.96
2023-03-26T07:59:35.799Z,58.50
2023-03-26T08:03:39.508Z,57.35
2023-03-26T08:07:17.933Z,59.32
2023-03-26T08:10:57.278Z,59.40
2023-03-26T08:14:24.834Z,60.03
2023-03-26T08:17:43.824Z,59.64
2023-03-26T08:21:00.548Z,59.39
2023-03-26T08:24:22.509Z,58.57
2023-03-26T08:27:42.093Z,57.15
2023-03-26T08:30:55.856Z,56.45
2023-03-26T08:34:08.524Z,58.06
2023-03-26T08:37:21.701Z,61.75
2023-03-26T08:41:00.894Z,63.07
2023-03-26T08:44:51.756Z,64.07
2023-03-26T08:48:52.204Z,63.45
2023-03-26T08:52:43.571Z,63.36
2023-03-26T08:56:02.261Z,63.80
2023-03-26T08:59:45.885Z,63.52
2023-03-26T09:03:39.176Z,62.30
2023-03-26T09:07:38.138Z,60.17
2023-03-26T09:11:15.412Z,55.82
2023-03-26T09:15:18.717Z,52.64
2023-03-26T09:19:08.219Z,49.37
2023-03-26T09:22:55.343Z,47.25
2023-03-26T09:26:29.973Z,44.29
2023-03-26T09:30:22.133Z,49.81
2023-03-26T09:34:00.532Z,47.93
2023-03-26T09:37:25.850Z,47.55
2023-03-26T09:40:48.161Z,48.57
2023-03-26T09:44:47.621Z,51.17
2023-03-26T09:48:36.200Z,49.38
2023-03-26T09:52:14.291Z,48.28
2023-03-26T09:55:54.062Z,50.89
2023-03-26T09:59:48.749Z,52.00
2023-03-26T10:03:32.838Z,55.25
2023-03-26T10:06:54.621Z,56.00
2023-03-26T10:10:12.275Z,57.26
2023-03-26T10:13:35.231Z,57.23
2023-03-26T10:16:58.266Z,56.77
2023-03-26T10:20:35.680Z,55.72
2023-03-26T10:24:01.271Z,51.39
2023-03-26T10:27:35.440Z,52.94
2023-03-26T10:31:19.936Z,54.54
2023-03-26T10:34:52.080Z,55.69
2023-03-26T10:38:14.061Z,56.69
2023-03-26T10:41:33.672Z,56.59
2023-03-26T10:45:02.989Z,57.67
2023-03-26T10:48:53.460Z,57.77
2023-03-26T10:52:09.594Z,57.98
2023-03-26T10:55:29.511Z,58.43
2023-03-26T10:58:49.672Z,57.58
2023-03-26T11:02:06.074Z,57.43
2023-03-26T11:05:41.642Z,57.93
2023-03-26T11:08:59.167Z,57.29
2023-03-26T11:12:26.145Z,57.50
2023-03-26T11:15:38.527Z,57.37
2023-03-26T11:18:55.947Z,57.21
2023-03-26T11:22:16.657Z,56.09
2023-03-26T11:25:53.819Z,54.73
2023-03-26T11:29:44.865Z,51.30
2023-03-26T11:33:01.600Z,51.68
2023-03-26T11:36:19.889Z,51.57
2023-03-26T11:39:36.836Z,52.71
2023-03-26T11:42:48.451Z,53.02
2023-03-26T11:46:00.819Z,53.73
2023-03-26T11:49:16.676Z,54.43
2023-03-26T11:52:29.987Z,54.60
2023-03-26T11:55:42.855Z,52.57
2023-03-26T11:59:01.385Z,53.50
2023-03-26T12:02:34.507Z,54.02
2023-03-26T12:05:54.794Z,54.00
2023-03-26T12:09:07.263Z,54.98
2023-03-26T12:12:19.738Z,55.64
2023-03-26T12:15:33.636Z,54.89
2023-03-26T12:18:46.741Z,56.33
2023-03-26T12:21:59.971Z,53.26
2023-03-26T12:25:27.656Z,52.45
2023-03-26T12:28:41.468Z,53.25
2023-03-26T12:32:11.587Z,53.97
2023-03-26T12:35:30.512Z,54.79
2023-03-26T12:38:46.180Z,55.98
2023-03-26T12:44:51.172Z,55.54
2023-03-26T12:45:22.352Z,56.93
2023-03-26T12:48:34.786Z,59.13
2023-03-26T12:51:52.683Z,58.13
2023-03-26T12:55:13.498Z,58.82
2023-03-26T12:58:39.848Z,59.05
2023-03-26T13:02:03.250Z,59.11
2023-03-26T13:05:39.036Z,58.66
2023-03-26T13:09:15.817Z,56.94
2023-03-26T13:12:41.698Z,55.84
2023-03-26T13:15:58.277Z,54.63
2023-03-26T13:19:17.682Z,55.28
2023-03-26T13:22:36.326Z,56.14
2023-03-26T13:25:55.862Z,55.98
2023-03-26T13:29:13.640Z,56.93
2023-03-26T13:32:32.757Z,57.78
2023-03-26T13:35:51.085Z,57.83
2023-03-26T13:39:14.356Z,57.48
2023-03-26T13:42:49.711Z,55.61
2023-03-26T13:46:11.997Z,55.02
2023-03-26T13:49:33.171Z,54.54
2023-03-26T13:52:52.381Z,54.39
2023-03-26T13:56:06.062Z,54.57
2023-03-26T13:59:23.930Z,54.23
2023-03-26T14:02:42.208Z,52.76
2023-03-26T14:05:58.751Z,51.84
2023-03-26T14:09:18.720Z,51.73
2023-03-26T14:12:46.671Z,51.76
2023-03-26T14:16:03.785Z,51.18
2023-03-26T14:19:32.235Z,51.84
2023-03-26T14:22:54.260Z,52.53
2023-03-26T14:26:37.601Z,53.16
2023-03-26T14:30:01.592Z,54.15
2023-03-26T14:33:28.337Z,54.31
2023-03-26T14:37:10.721Z,54.63
2023-03-26T14:40:57.502Z,54.83
2023-03-26T14:44:47.606Z,54.15
2023-03-26T14:48:09.724Z,54.88
2023-03-26T14:51:32.633Z,53.90
2023-03-26T14:54:49.296Z,54.05
2023-03-26T14:58:42.139Z,54.25
2023-03-26T15:02:22.629Z,54.70
2023-03-26T15:06:25.595Z,55.23
2023-03-26T15:10:43.341Z,55.96
2023-03-26T15:14:12.342Z,55.67
2023-03-26T15:18:24.446Z,55.69
2023-03-26T15:22:23.444Z,55.92
2023-03-26T15:26:42.109Z,56.01
2023-03-26T15:30:35.437Z,55.94
2023-03-26T15:34:28.444Z,55.60
2023-03-26T15:38:25.301Z,55.77
2023-03-26T15:41:44.009Z,55.19
2023-03-26T15:45:06.321Z,55.27
2023-03-26T15:49:06.021Z,54.68
2023-03-26T15:52:30.680Z,55.56
2023-03-26T15:55:48.947Z,55.03
2023-03-26T15:59:26.117Z,54.01
2023-03-26T16:17:14.521Z,53.28
2023-03-26T16:21:31.867Z,53.51
2023-03-26T16:25:27.143Z,53.06
2023-03-26T16:29:29.277Z,53.93
2023-03-26T16:33:21.948Z,53.95
2023-03-26T16:37:13.937Z,53.72
2023-03-26T16:41:16.137Z,54.68
2023-03-26T16:45:10.566Z,54.74
2023-03-26T16:49:09.961Z,55.31
2023-03-26T16:53:03.257Z,55.35
2023-03-26T16:57:01.750Z,55.27
2023-03-26T17:00:59.267Z,56.49
2023-03-26T17:04:41.854Z,56.16
2023-03-26T17:08:17.249Z,56.60
2023-03-26T17:11:40.283Z,56.89
2023-03-26T17:31:35.654Z,57.15
2023-03-26T17:35:07.665Z,57.26
2023-03-26T17:39:08.867Z,58.42
2023-03-26T17:42:33.098Z,57.76
2023-03-26T17:52:36.556Z,58.61
2023-03-26T17:56:15.429Z,58.48
2023-03-26T17:59:41.870Z,59.35
2023-03-26T18:03:05.976Z,59.06
2023-03-26T18:06:23.422Z,59.06
2023-03-26T18:09:50.312Z,59.49
2023-03-26T18:13:44.807Z,59.31
2023-03-26T18:17:00.510Z,59.18
2023-03-26T18:20:25.900Z,59.54
2023-03-26T18:23:45.321Z,59.51
2023-03-26T18:27:03.148Z,59.79
2023-03-26T18:30:26.449Z,60.52
2023-03-26T18:33:48.043Z,59.00
2023-03-26T18:37:19.893Z,59.34
2023-03-26T18:40:37.703Z,58.83
2023-03-26T18:43:50.615Z,59.83
2023-03-26T18:47:03.589Z,59.96
2023-03-26T18:50:26.429Z,60.27
2023-03-26T18:53:42.286Z,60.20
2023-03-26T18:56:58.919Z,60.54
2023-03-26T19:00:26.301Z,60.14
2023-03-26T19:03:43.959Z,60.41
2023-03-26T19:06:57.721Z,59.79
2023-03-26T19:10:12.007Z,60.29
2023-03-26T19:13:27.300Z,59.80
2023-03-26T19:16:43.398Z,60.87
2023-03-26T19:19:57.684Z,60.78
2023-03-26T19:23:10.691Z,61.14
2023-03-26T19:26:23.626Z,60.53
2023-03-26T19:29:38.524Z,61.63
2023-03-26T19:33:12.175Z,61.55
2023-03-26T19:36:24.501Z,60.66
2023-03-26T19:39:47.321Z,61.19
2023-03-26T19:43:00.543Z,62.03
2023-03-26T19:46:17.364Z,61.69
2023-03-26T19:49:42.126Z,62.73
2023-03-26T19:53:09.031Z,64.29
2023-03-26T19:56:22.494Z,64.64
2023-03-26T19:59:35.520Z,65.54
2023-03-26T20:02:49.497Z,66.55
2023-03-26T20:06:02.885Z,67.86
2023-03-26T20:09:16.958Z,70.92
2023-03-26T20:12:29.848Z,73.90
2023-03-26T20:15:43.466Z,76.87
2023-03-26T20:18:57.490Z,77.37
2023-03-26T20:22:10.655Z,81.36
2023-03-26T20:25:30.247Z,82.23
2023-03-26T20:28:48.172Z,83.35
2023-03-26T20:31:58.166Z,87.11
2023-03-26T20:35:20.265Z,88.71
2023-03-26T20:38:39.458Z,88.75
2023-03-26T20:41:52.752Z,90.14
2023-03-26T20:45:05.211Z,92.05
2023-03-26T20:48:17.821Z,93.84
2023-03-26T20:51:30.193Z,94.47
2023-03-26T20:54:42.449Z,96.85
2023-03-26T20:57:55.401Z,97.95
2023-03-26T21:01:09.551Z,99.18
2023-03-26T21:04:23.573Z,100.00
2023-03-26T21:07:36.005Z,100.00
2023-03-26T21:10:51.251Z,100.00
2023-03-26T21:14:11.058Z,100.00
2023-03-26T21:17:28.432Z,100.00
2023-03-26T21:20:43.369Z,100.00
2023-03-26T21:24:00.417Z,100.00
2023-03-26T21:27:15.289Z,100.00
2023-03-26T21:30:29.814Z,100.00
2023-03-26T21:33:42.867Z,100.00
2023-03-26T21:36:57.086Z,100.00
2023-03-26T21:40:17.130Z,100.00
2023-03-26T21:43:31.523Z,100.00
2023-03-26T21:46:47.934Z,100.00
2023-03-26T21:50:02.115Z,100.00
2023-03-26T21:53:18.192Z,100.00
2023-03-26T21:56:41.575Z,100.00
2023-03-26T22:00:00.712Z,100.00
2023-03-26T22:03:22.309Z,100.00
2023-03-26T22:06:43.054Z,100.00
2023-03-26T22:09:57.116Z,100.00
2023-03-26T22:13:09.273Z,100.00
2023-03-26T22:16:23.580Z,100.00
2023-03-26T22:19:36.128Z,100.00
2023-03-26T22:22:50.131Z,100.00
2023-03-26T22:26:02.530Z,100.00
2023-03-26T22:29:15.312Z,100.00
2023-03-26T22:32:32.746Z,100.00
2023-03-26T22:35:43.197Z,100.00
2023-03-26T22:38:58.289Z,100.00
2023-03-26T22:42:10.682Z,100.00
2023-03-26T22:45:23.722Z,100.00
2023-03-26T22:48:37.611Z,100.00
2023-03-26T22:51:50.310Z,100.00
2023-03-26T22:55:03.245Z,100.00
2023-03-26T22:58:15.473Z,100.00
2023-03-26T23:01:30.432Z,100.00
2023-03-26T23:04:42.871Z,100.00
2023-03-26T23:07:56.273Z,100.00
2023-03-26T23:11:14.225Z,100.00
2023-03-26T23:14:26.634Z,100.00
2023-03-26T23:17:40.956Z,100.00
2023-03-26T23:20:59.740Z,100.00
2023-03-26T23:24:13.287Z,100.00
2023-03-26T23:27:25.612Z,100.00
2023-03-26T23:30:37.858Z,100.00
2023-03-26T23:33:50.593Z,100.00
2023-03-26T23:37:03.209Z,100.00
2023-03-26T23:40:19.069Z,100.00
2023-03-26T23:43:32.969Z,100.00
2023-03-26T23:46:45.834Z,100.00
2023-03-26T23:49:58.381Z,100.00
2023-03-26T23:53:11.135Z,100.00
2023-03-26T23:56:24.068Z,100.00
2023-03-26T23:59:36.719Z,100.00
